sensor_id;sensor_type;location;lat;lon;timestamp;temperature;humidity
11559;DHT22;5835;42.930;25.178;2023-01-28T00:01:15;-0.40;99.90
11559;DHT22;5835;42.930;25.178;2023-01-28T00:03:43;-0.40;99.90
11559;DHT22;5835;42.930;25.178;2023-01-28T00:06:12;-0.40;99.90
11559;DHT22;5835;42.930;25.178;2023-01-28T00:08:40;-0.40;99.90
11559;DHT22;5835;42.930;25.178;2023-01-28T00:11:10;-0.40;99.90
11559;DHT22;5835;42.930;25.178;2023-01-28T00:13:38;-0.50;99.90
11559;DHT22;5835;42.930;25.178;2023-01-28T00:16:07;-0.40;99.90
11559;DHT22;5835;42.930;25.178;2023-01-28T00:18:35;-0.40;99.90
11559;DHT22;5835;42.930;25.178;2023-01-28T00:21:05;-0.40;99.90
11559;DHT22;5835;42.930;25.178;2023-01-28T00:23:34;-0.40;99.90
11559;DHT22;5835;42.930;25.178;2023-01-28T00:26:03;-0.40;99.90
11559;DHT22;5835;42.930;25.178;2023-01-28T00:28:33;-0.40;99.90
11559;DHT22;5835;42.930;25.178;2023-01-28T00:31:06;-0.40;99.90
11559;DHT22;5835;42.930;25.178;2023-01-28T00:33:34;-0.50;99.90
11559;DHT22;5835;42.930;25.178;2023-01-28T00:36:04;-0.50;99.90
11559;DHT22;5835;42.930;25.178;2023-01-28T00:38:33;-0.50;99.90
11559;DHT22;5835;42.930;25.178;2023-01-28T00:41:07;-0.50;99.90
11559;DHT22;5835;42.930;25.178;2023-01-28T00:43:37;-0.50;99.90
11559;DHT22;5835;42.930;25.178;2023-01-28T00:46:05;-0.50;99.90
11559;DHT22;5835;42.930;25.178;2023-01-28T00:48:33;-0.60;99.90
11559;DHT22;5835;42.930;25.178;2023-01-28T00:51:01;-0.50;99.90
11559;DHT22;5835;42.930;25.178;2023-01-28T00:53:29;-0.50;99.90
11559;DHT22;5835;42.930;25.178;2023-01-28T00:55:56;-0.50;99.90
11559;DHT22;5835;42.930;25.178;2023-01-28T00:58:25;-0.50;99.90
11559;DHT22;5835;42.930;25.178;2023-01-28T01:00:54;-0.50;99.90
11559;DHT22;5835;42.930;25.178;2023-01-28T01:03:21;-0.50;99.90
11559;DHT22;5835;42.930;25.178;2023-01-28T01:05:49;-0.50;99.90
11559;DHT22;5835;42.930;25.178;2023-01-28T01:08:16;-0.50;99.90
11559;DHT22;5835;42.930;25.178;2023-01-28T01:10:44;-0.50;99.90
11559;DHT22;5835;42.930;25.178;2023-01-28T01:13:12;-0.50;99.90
11559;DHT22;5835;42.930;25.178;2023-01-28T01:15:39;-0.50;99.90
11559;DHT22;5835;42.930;25.178;2023-01-28T01:18:08;-0.50;99.90
11559;DHT22;5835;42.930;25.178;2023-01-28T01:20:36;-0.50;99.90
11559;DHT22;5835;42.930;25.178;2023-01-28T01:23:06;-0.50;99.90
11559;DHT22;5835;42.930;25.178;2023-01-28T01:25:33;-0.40;99.90
11559;DHT22;5835;42.930;25.178;2023-01-28T01:28:01;-0.40;99.90
11559;DHT22;5835;42.930;25.178;2023-01-28T01:30:29;-0.40;99.90
11559;DHT22;5835;42.930;25.178;2023-01-28T01:32:57;-0.40;99.90
11559;DHT22;5835;42.930;25.178;2023-01-28T01:35:26;-0.30;99.90
11559;DHT22;5835;42.930;25.178;2023-01-28T01:37:53;-0.40;99.90
11559;DHT22;5835;42.930;25.178;2023-01-28T01:40:21;-0.40;99.90
11559;DHT22;5835;42.930;25.178;2023-01-28T01:42:48;-0.40;99.90
11559;DHT22;5835;42.930;25.178;2023-01-28T01:45:16;-0.40;99.90
11559;DHT22;5835;42.930;25.178;2023-01-28T01:47:47;-0.40;99.90
11559;DHT22;5835;42.930;25.178;2023-01-28T01:50:20;-0.40;99.90
11559;DHT22;5835;42.930;25.178;2023-01-28T01:52:55;-0.40;99.90
11559;DHT22;5835;42.930;25.178;2023-01-28T01:55:25;-0.40;99.90
11559;DHT22;5835;42.930;25.178;2023-01-28T01:57:56;-0.40;99.90
11559;DHT22;5835;42.930;25.178;2023-01-28T02:00:24;-0.40;99.90
11559;DHT22;5835;42.930;25.178;2023-01-28T02:02:52;-0.50;99.90
11559;DHT22;5835;42.930;25.178;2023-01-28T02:05:21;-0.50;99.90
11559;DHT22;5835;42.930;25.178;2023-01-28T02:07:53;-0.50;99.90
11559;DHT22;5835;42.930;25.178;2023-01-28T02:10:41;-0.50;99.90
11559;DHT22;5835;42.930;25.178;2023-01-28T02:13:09;-0.50;99.90
11559;DHT22;5835;42.930;25.178;2023-01-28T02:15:37;-0.50;99.90
11559;DHT22;5835;42.930;25.178;2023-01-28T02:18:05;-0.50;99.90
11559;DHT22;5835;42.930;25.178;2023-01-28T02:20:44;-0.50;99.90
11559;DHT22;5835;42.930;25.178;2023-01-28T02:23:30;-0.50;99.90
11559;DHT22;5835;42.930;25.178;2023-01-28T02:29:13;-0.50;99.90
11559;DHT22;5835;42.930;25.178;2023-01-28T02:31:45;-0.50;99.90
11559;DHT22;5835;42.930;25.178;2023-01-28T02:34:20;-0.50;99.90
11559;DHT22;5835;42.930;25.178;2023-01-28T02:36:53;-0.50;99.90
11559;DHT22;5835;42.930;25.178;2023-01-28T02:39:24;-0.40;99.90
11559;DHT22;5835;42.930;25.178;2023-01-28T02:41:56;-0.50;99.90
11559;DHT22;5835;42.930;25.178;2023-01-28T02:44:27;-0.40;99.90
11559;DHT22;5835;42.930;25.178;2023-01-28T02:46:55;-0.40;99.90
11559;DHT22;5835;42.930;25.178;2023-01-28T02:49:44;-0.50;99.90
11559;DHT22;5835;42.930;25.178;2023-01-28T02:52:24;-0.40;99.90
11559;DHT22;5835;42.930;25.178;2023-01-28T02:55:11;-0.50;99.90
11559;DHT22;5835;42.930;25.178;2023-01-28T02:57:48;-0.50;99.90
11559;DHT22;5835;42.930;25.178;2023-01-28T03:00:26;-0.50;99.90
11559;DHT22;5835;42.930;25.178;2023-01-28T03:03:05;-0.40;99.90
11559;DHT22;5835;42.930;25.178;2023-01-28T03:05:35;-0.50;99.90
11559;DHT22;5835;42.930;25.178;2023-01-28T03:08:06;-0.40;99.90
11559;DHT22;5835;42.930;25.178;2023-01-28T03:10:48;-0.40;99.90
11559;DHT22;5835;42.930;25.178;2023-01-28T03:13:34;-0.50;99.90
11559;DHT22;5835;42.930;25.178;2023-01-28T03:16:21;-0.50;99.90
11559;DHT22;5835;42.930;25.178;2023-01-28T03:19:07;-0.50;99.90
11559;DHT22;5835;42.930;25.178;2023-01-28T03:21:52;-0.50;99.90
11559;DHT22;5835;42.930;25.178;2023-01-28T03:24:41;-0.50;99.90
11559;DHT22;5835;42.930;25.178;2023-01-28T03:27:31;-0.60;99.90
11559;DHT22;5835;42.930;25.178;2023-01-28T03:30:19;-0.60;99.90
11559;DHT22;5835;42.930;25.178;2023-01-28T03:33:07;-0.60;99.90
11559;DHT22;5835;42.930;25.178;2023-01-28T03:35:53;-0.50;99.90
11559;DHT22;5835;42.930;25.178;2023-01-28T03:38:39;-0.70;99.90
11559;DHT22;5835;42.930;25.178;2023-01-28T03:41:09;-0.70;99.90
11559;DHT22;5835;42.930;25.178;2023-01-28T03:43:37;-0.70;99.90
11559;DHT22;5835;42.930;25.178;2023-01-28T03:46:05;-0.70;99.90
11559;DHT22;5835;42.930;25.178;2023-01-28T03:48:34;-0.70;99.90
11559;DHT22;5835;42.930;25.178;2023-01-28T03:51:01;-0.70;99.90
11559;DHT22;5835;42.930;25.178;2023-01-28T03:53:29;-0.70;99.90
11559;DHT22;5835;42.930;25.178;2023-01-28T03:55:56;-0.70;99.90
11559;DHT22;5835;42.930;25.178;2023-01-28T03:58:24;-0.70;99.90
11559;DHT22;5835;42.930;25.178;2023-01-28T04:01:11;-0.70;99.90
11559;DHT22;5835;42.930;25.178;2023-01-28T04:03:40;-0.70;99.90
11559;DHT22;5835;42.930;25.178;2023-01-28T04:06:08;-0.80;99.90
11559;DHT22;5835;42.930;25.178;2023-01-28T04:08:36;-0.70;99.90
11559;DHT22;5835;42.930;25.178;2023-01-28T04:11:04;-0.80;99.90
11559;DHT22;5835;42.930;25.178;2023-01-28T04:13:41;-0.80;99.90
11559;DHT22;5835;42.930;25.178;2023-01-28T04:16:09;-0.80;99.90
11559;DHT22;5835;42.930;25.178;2023-01-28T04:18:37;-0.80;99.90
11559;DHT22;5835;42.930;25.178;2023-01-28T04:21:06;-0.70;99.90
11559;DHT22;5835;42.930;25.178;2023-01-28T04:23:34;-0.70;99.90
11559;DHT22;5835;42.930;25.178;2023-01-28T04:26:02;-0.70;99.90
11559;DHT22;5835;42.930;25.178;2023-01-28T04:28:30;-0.80;99.90
11559;DHT22;5835;42.930;25.178;2023-01-28T04:30:58;-0.70;99.90
11559;DHT22;5835;42.930;25.178;2023-01-28T04:33:25;-0.70;99.90
11559;DHT22;5835;42.930;25.178;2023-01-28T04:35:53;-0.70;99.90
11559;DHT22;5835;42.930;25.178;2023-01-28T04:38:22;-0.80;99.90
11559;DHT22;5835;42.930;25.178;2023-01-28T04:40:50;-0.80;99.90
11559;DHT22;5835;42.930;25.178;2023-01-28T04:43:17;-0.80;99.90
11559;DHT22;5835;42.930;25.178;2023-01-28T04:45:45;-0.80;99.90
11559;DHT22;5835;42.930;25.178;2023-01-28T04:48:13;-0.80;99.90
11559;DHT22;5835;42.930;25.178;2023-01-28T04:50:41;-0.80;99.90
11559;DHT22;5835;42.930;25.178;2023-01-28T04:53:09;-0.90;99.90
11559;DHT22;5835;42.930;25.178;2023-01-28T04:55:39;-0.90;99.90
11559;DHT22;5835;42.930;25.178;2023-01-28T04:58:06;-0.80;99.90
11559;DHT22;5835;42.930;25.178;2023-01-28T05:00:34;-0.80;99.90
11559;DHT22;5835;42.930;25.178;2023-01-28T05:03:01;-0.80;99.90
11559;DHT22;5835;42.930;25.178;2023-01-28T05:05:29;-0.80;99.90
11559;DHT22;5835;42.930;25.178;2023-01-28T05:07:57;-0.90;99.90
11559;DHT22;5835;42.930;25.178;2023-01-28T05:10:25;-0.80;99.90
11559;DHT22;5835;42.930;25.178;2023-01-28T05:12:55;-0.90;99.90
11559;DHT22;5835;42.930;25.178;2023-01-28T05:15:23;-1.00;99.90
11559;DHT22;5835;42.930;25.178;2023-01-28T05:17:52;-1.00;99.90
11559;DHT22;5835;42.930;25.178;2023-01-28T05:20:20;-1.00;99.90
11559;DHT22;5835;42.930;25.178;2023-01-28T05:22:47;-0.90;99.90
11559;DHT22;5835;42.930;25.178;2023-01-28T05:25:15;-1.00;99.90
11559;DHT22;5835;42.930;25.178;2023-01-28T05:27:43;-0.90;99.90
11559;DHT22;5835;42.930;25.178;2023-01-28T05:30:12;-0.90;99.90
11559;DHT22;5835;42.930;25.178;2023-01-28T05:32:40;-1.00;99.90
11559;DHT22;5835;42.930;25.178;2023-01-28T05:35:08;-0.90;99.90
11559;DHT22;5835;42.930;25.178;2023-01-28T05:37:35;-0.90;99.90
11559;DHT22;5835;42.930;25.178;2023-01-28T05:40:03;-1.00;99.90
11559;DHT22;5835;42.930;25.178;2023-01-28T05:42:31;-0.90;99.90
11559;DHT22;5835;42.930;25.178;2023-01-28T05:44:58;-0.90;99.90
11559;DHT22;5835;42.930;25.178;2023-01-28T05:47:27;-0.90;99.90
11559;DHT22;5835;42.930;25.178;2023-01-28T05:49:55;-0.90;99.90
11559;DHT22;5835;42.930;25.178;2023-01-28T05:52:22;-1.10;99.90
11559;DHT22;5835;42.930;25.178;2023-01-28T05:54:50;-1.00;99.90
11559;DHT22;5835;42.930;25.178;2023-01-28T05:57:18;-1.00;99.90
11559;DHT22;5835;42.930;25.178;2023-01-28T05:59:46;-1.00;99.90
11559;DHT22;5835;42.930;25.178;2023-01-28T06:02:13;-1.00;99.90
11559;DHT22;5835;42.930;25.178;2023-01-28T06:04:42;-1.00;99.90
11559;DHT22;5835;42.930;25.178;2023-01-28T06:07:10;-0.90;99.90
11559;DHT22;5835;42.930;25.178;2023-01-28T06:09:38;-0.90;99.90
11559;DHT22;5835;42.930;25.178;2023-01-28T06:12:06;-0.90;99.90
11559;DHT22;5835;42.930;25.178;2023-01-28T06:14:34;-0.90;99.90
11559;DHT22;5835;42.930;25.178;2023-01-28T06:17:01;-0.80;99.90
11559;DHT22;5835;42.930;25.178;2023-01-28T06:19:29;-0.90;99.90
11559;DHT22;5835;42.930;25.178;2023-01-28T06:21:57;-0.80;99.90
11559;DHT22;5835;42.930;25.178;2023-01-28T06:24:25;-0.90;99.90
11559;DHT22;5835;42.930;25.178;2023-01-28T06:26:52;-0.90;99.90
11559;DHT22;5835;42.930;25.178;2023-01-28T06:29:19;-0.90;99.90
11559;DHT22;5835;42.930;25.178;2023-01-28T06:31:47;-0.90;99.90
11559;DHT22;5835;42.930;25.178;2023-01-28T06:34:14;-0.80;99.90
11559;DHT22;5835;42.930;25.178;2023-01-28T06:36:42;-0.80;99.90
11559;DHT22;5835;42.930;25.178;2023-01-28T06:39:11;-0.70;99.90
11559;DHT22;5835;42.930;25.178;2023-01-28T06:41:38;-0.60;99.90
11559;DHT22;5835;42.930;25.178;2023-01-28T06:44:06;-0.60;99.90
11559;DHT22;5835;42.930;25.178;2023-01-28T06:46:33;-0.70;99.90
11559;DHT22;5835;42.930;25.178;2023-01-28T06:49:01;-0.60;99.90
11559;DHT22;5835;42.930;25.178;2023-01-28T06:51:28;-0.60;99.90
11559;DHT22;5835;42.930;25.178;2023-01-28T06:53:56;-0.40;99.90
11559;DHT22;5835;42.930;25.178;2023-01-28T06:56:25;-0.40;99.90
11559;DHT22;5835;42.930;25.178;2023-01-28T06:58:52;-0.30;99.90
11559;DHT22;5835;42.930;25.178;2023-01-28T07:01:19;0.00;99.90
11559;DHT22;5835;42.930;25.178;2023-01-28T07:03:49;0.20;99.90
11559;DHT22;5835;42.930;25.178;2023-01-28T07:06:17;0.10;99.90
11559;DHT22;5835;42.930;25.178;2023-01-28T07:08:44;-0.20;99.90
11559;DHT22;5835;42.930;25.178;2023-01-28T07:11:12;-0.20;99.90
11559;DHT22;5835;42.930;25.178;2023-01-28T07:13:41;-0.40;99.90
11559;DHT22;5835;42.930;25.178;2023-01-28T07:16:09;-0.30;99.90
11559;DHT22;5835;42.930;25.178;2023-01-28T07:18:37;-0.10;99.90
11559;DHT22;5835;42.930;25.178;2023-01-28T07:21:04;-0.10;99.90
11559;DHT22;5835;42.930;25.178;2023-01-28T07:23:32;0.00;99.90
11559;DHT22;5835;42.930;25.178;2023-01-28T07:26:02;0.00;99.90
11559;DHT22;5835;42.930;25.178;2023-01-28T07:28:30;0.10;99.90
11559;DHT22;5835;42.930;25.178;2023-01-28T07:30:59;0.30;99.90
11559;DHT22;5835;42.930;25.178;2023-01-28T07:33:27;0.00;99.90
11559;DHT22;5835;42.930;25.178;2023-01-28T07:35:54;0.00;99.90
11559;DHT22;5835;42.930;25.178;2023-01-28T07:38:22;0.10;99.90
11559;DHT22;5835;42.930;25.178;2023-01-28T07:40:49;0.30;99.90
11559;DHT22;5835;42.930;25.178;2023-01-28T07:43:17;0.10;99.90
11559;DHT22;5835;42.930;25.178;2023-01-28T07:45:44;0.10;99.90
11559;DHT22;5835;42.930;25.178;2023-01-28T07:48:14;0.10;99.90
11559;DHT22;5835;42.930;25.178;2023-01-28T07:50:41;0.20;99.90
11559;DHT22;5835;42.930;25.178;2023-01-28T07:53:10;0.30;99.90
11559;DHT22;5835;42.930;25.178;2023-01-28T07:55:38;0.30;99.90
11559;DHT22;5835;42.930;25.178;2023-01-28T07:58:06;0.50;99.90
11559;DHT22;5835;42.930;25.178;2023-01-28T08:00:35;0.70;99.90
11559;DHT22;5835;42.930;25.178;2023-01-28T08:03:05;0.80;99.90
11559;DHT22;5835;42.930;25.178;2023-01-28T08:05:39;0.80;99.90
11559;DHT22;5835;42.930;25.178;2023-01-28T08:08:08;1.10;99.90
11559;DHT22;5835;42.930;25.178;2023-01-28T08:10:36;1.10;99.90
11559;DHT22;5835;42.930;25.178;2023-01-28T08:13:04;1.20;99.90
11559;DHT22;5835;42.930;25.178;2023-01-28T08:15:33;1.00;99.90
11559;DHT22;5835;42.930;25.178;2023-01-28T08:18:02;0.80;99.90
11559;DHT22;5835;42.930;25.178;2023-01-28T08:20:30;0.90;99.90
11559;DHT22;5835;42.930;25.178;2023-01-28T08:23:07;1.10;99.90
11559;DHT22;5835;42.930;25.178;2023-01-28T08:25:35;1.30;99.90
11559;DHT22;5835;42.930;25.178;2023-01-28T08:28:03;1.50;99.90
11559;DHT22;5835;42.930;25.178;2023-01-28T08:30:32;1.30;98.40
11559;DHT22;5835;42.930;25.178;2023-01-28T08:33:00;1.20;98.90
11559;DHT22;5835;42.930;25.178;2023-01-28T08:35:28;1.50;98.20
11559;DHT22;5835;42.930;25.178;2023-01-28T08:37:58;1.60;98.80
11559;DHT22;5835;42.930;25.178;2023-01-28T08:40:28;1.60;93.80
11559;DHT22;5835;42.930;25.178;2023-01-28T08:42:55;1.70;81.50
11559;DHT22;5835;42.930;25.178;2023-01-28T08:45:24;1.40;66.90
11559;DHT22;5835;42.930;25.178;2023-01-28T08:47:54;1.20;62.10
11559;DHT22;5835;42.930;25.178;2023-01-28T08:50:22;1.00;97.10
11559;DHT22;5835;42.930;25.178;2023-01-28T08:52:54;0.90;99.90
11559;DHT22;5835;42.930;25.178;2023-01-28T08:55:25;1.30;99.90
11559;DHT22;5835;42.930;25.178;2023-01-28T08:57:54;1.60;99.90
11559;DHT22;5835;42.930;25.178;2023-01-28T09:00:22;1.30;98.60
11559;DHT22;5835;42.930;25.178;2023-01-28T09:02:51;1.30;99.90
11559;DHT22;5835;42.930;25.178;2023-01-28T09:05:19;1.30;99.90
11559;DHT22;5835;42.930;25.178;2023-01-28T09:07:47;1.30;99.90
11559;DHT22;5835;42.930;25.178;2023-01-28T09:10:15;1.40;99.90
11559;DHT22;5835;42.930;25.178;2023-01-28T09:12:43;1.30;99.90
11559;DHT22;5835;42.930;25.178;2023-01-28T09:15:14;1.40;99.90
11559;DHT22;5835;42.930;25.178;2023-01-28T09:17:42;1.30;99.90
11559;DHT22;5835;42.930;25.178;2023-01-28T09:20:10;1.30;99.90
11559;DHT22;5835;42.930;25.178;2023-01-28T09:22:38;1.30;99.90
11559;DHT22;5835;42.930;25.178;2023-01-28T09:25:06;1.30;99.90
11559;DHT22;5835;42.930;25.178;2023-01-28T09:27:34;1.50;99.90
11559;DHT22;5835;42.930;25.178;2023-01-28T09:30:02;1.60;99.90
11559;DHT22;5835;42.930;25.178;2023-01-28T09:32:31;1.60;99.00
11559;DHT22;5835;42.930;25.178;2023-01-28T09:34:58;1.70;95.50
11559;DHT22;5835;42.930;25.178;2023-01-28T09:37:26;1.70;71.90
11559;DHT22;5835;42.930;25.178;2023-01-28T09:39:53;1.90;89.90
11559;DHT22;5835;42.930;25.178;2023-01-28T09:42:31;2.00;65.00
11559;DHT22;5835;42.930;25.178;2023-01-28T09:45:11;2.20;67.50
11559;DHT22;5835;42.930;25.178;2023-01-28T09:47:45;2.20;31.30
11559;DHT22;5835;42.930;25.178;2023-01-28T09:50:16;2.30;11.50
11559;DHT22;5835;42.930;25.178;2023-01-28T09:52:44;2.30;17.30
11559;DHT22;5835;42.930;25.178;2023-01-28T09:55:18;2.20;12.60
11559;DHT22;5835;42.930;25.178;2023-01-28T09:57:50;2.10;36.80
11559;DHT22;5835;42.930;25.178;2023-01-28T10:00:23;2.20;46.10
11559;DHT22;5835;42.930;25.178;2023-01-28T10:05:51;2.00;81.60
11559;DHT22;5835;42.930;25.178;2023-01-28T10:08:37;2.00;68.50
11559;DHT22;5835;42.930;25.178;2023-01-28T10:11:20;2.00;76.00
11559;DHT22;5835;42.930;25.178;2023-01-28T10:13:55;1.90;60.30
11559;DHT22;5835;42.930;25.178;2023-01-28T10:16:33;2.00;89.10
11559;DHT22;5835;42.930;25.178;2023-01-28T10:19:06;1.80;91.00
11559;DHT22;5835;42.930;25.178;2023-01-28T10:21:42;1.70;85.30
11559;DHT22;5835;42.930;25.178;2023-01-28T10:24:14;1.60;99.10
11559;DHT22;5835;42.930;25.178;2023-01-28T10:26:44;1.50;99.90
11559;DHT22;5835;42.930;25.178;2023-01-28T10:29:16;1.50;99.90
11559;DHT22;5835;42.930;25.178;2023-01-28T10:31:51;1.50;99.90
11559;DHT22;5835;42.930;25.178;2023-01-28T10:34:21;1.40;99.90
11559;DHT22;5835;42.930;25.178;2023-01-28T10:36:49;1.50;99.90
11559;DHT22;5835;42.930;25.178;2023-01-28T10:39:20;1.50;99.90
11559;DHT22;5835;42.930;25.178;2023-01-28T10:41:49;1.60;99.90
11559;DHT22;5835;42.930;25.178;2023-01-28T10:44:20;1.70;99.90
11559;DHT22;5835;42.930;25.178;2023-01-28T10:46:53;1.60;99.90
11559;DHT22;5835;42.930;25.178;2023-01-28T10:49:26;1.70;99.90
11559;DHT22;5835;42.930;25.178;2023-01-28T10:51:54;1.80;99.90
11559;DHT22;5835;42.930;25.178;2023-01-28T10:54:23;1.90;99.90
11559;DHT22;5835;42.930;25.178;2023-01-28T10:56:53;2.00;99.90
11559;DHT22;5835;42.930;25.178;2023-01-28T10:59:25;1.90;99.90
11559;DHT22;5835;42.930;25.178;2023-01-28T11:01:54;2.00;99.90
11559;DHT22;5835;42.930;25.178;2023-01-28T11:04:25;2.10;99.90
11559;DHT22;5835;42.930;25.178;2023-01-28T11:06:57;2.10;99.30
11559;DHT22;5835;42.930;25.178;2023-01-28T11:09:27;2.10;97.60
11559;DHT22;5835;42.930;25.178;2023-01-28T11:11:55;2.10;99.90
11559;DHT22;5835;42.930;25.178;2023-01-28T11:14:24;2.40;99.90
11559;DHT22;5835;42.930;25.178;2023-01-28T11:16:54;2.10;82.00
11559;DHT22;5835;42.930;25.178;2023-01-28T11:19:30;2.20;98.70
11559;DHT22;5835;42.930;25.178;2023-01-28T11:22:01;2.00;99.10
11559;DHT22;5835;42.930;25.178;2023-01-28T11:24:30;2.10;99.90
11559;DHT22;5835;42.930;25.178;2023-01-28T11:27:10;2.20;99.90
11559;DHT22;5835;42.930;25.178;2023-01-28T11:29:41;2.10;99.90
11559;DHT22;5835;42.930;25.178;2023-01-28T11:32:19;2.00;99.90
11559;DHT22;5835;42.930;25.178;2023-01-28T11:34:53;1.80;99.90
11559;DHT22;5835;42.930;25.178;2023-01-28T11:37:24;2.00;99.90
11559;DHT22;5835;42.930;25.178;2023-01-28T11:40:01;1.90;99.90
11559;DHT22;5835;42.930;25.178;2023-01-28T11:42:29;1.90;99.90
11559;DHT22;5835;42.930;25.178;2023-01-28T11:44:58;1.80;99.90
11559;DHT22;5835;42.930;25.178;2023-01-28T11:47:55;1.90;99.90
11559;DHT22;5835;42.930;25.178;2023-01-28T11:50:36;1.90;99.90
11559;DHT22;5835;42.930;25.178;2023-01-28T11:53:29;1.80;99.90
11559;DHT22;5835;42.930;25.178;2023-01-28T11:56:12;1.70;99.90
11559;DHT22;5835;42.930;25.178;2023-01-28T11:58:51;1.80;99.90
11559;DHT22;5835;42.930;25.178;2023-01-28T12:01:29;1.70;99.90
11559;DHT22;5835;42.930;25.178;2023-01-28T12:04:20;1.60;99.90
11559;DHT22;5835;42.930;25.178;2023-01-28T12:07:00;1.70;99.90
11559;DHT22;5835;42.930;25.178;2023-01-28T12:09:37;1.60;99.90
11559;DHT22;5835;42.930;25.178;2023-01-28T12:12:25;1.60;99.90
11559;DHT22;5835;42.930;25.178;2023-01-28T12:15:15;1.70;99.90
11559;DHT22;5835;42.930;25.178;2023-01-28T12:17:57;1.60;99.90
11559;DHT22;5835;42.930;25.178;2023-01-28T12:20:30;1.60;99.90
11559;DHT22;5835;42.930;25.178;2023-01-28T12:23:28;1.70;99.90
11559;DHT22;5835;42.930;25.178;2023-01-28T12:26:04;1.60;99.90
11559;DHT22;5835;42.930;25.178;2023-01-28T12:28:51;1.60;99.90
11559;DHT22;5835;42.930;25.178;2023-01-28T12:31:49;1.60;99.90
11559;DHT22;5835;42.930;25.178;2023-01-28T12:34:45;1.70;99.90
11559;DHT22;5835;42.930;25.178;2023-01-28T12:37:19;1.60;99.90
11559;DHT22;5835;42.930;25.178;2023-01-28T12:40:03;1.80;99.90
11559;DHT22;5835;42.930;25.178;2023-01-28T12:42:36;1.90;99.90
11559;DHT22;5835;42.930;25.178;2023-01-28T12:45:14;1.90;99.90
11559;DHT22;5835;42.930;25.178;2023-01-28T12:47:49;2.00;99.90
11559;DHT22;5835;42.930;25.178;2023-01-28T12:50:21;2.00;99.90
11559;DHT22;5835;42.930;25.178;2023-01-28T12:52:55;2.00;99.90
11559;DHT22;5835;42.930;25.178;2023-01-28T12:55:38;2.00;99.90
11559;DHT22;5835;42.930;25.178;2023-01-28T12:58:13;2.00;99.90
11559;DHT22;5835;42.930;25.178;2023-01-28T13:00:45;1.90;99.90
11559;DHT22;5835;42.930;25.178;2023-01-28T13:03:19;1.90;99.90
11559;DHT22;5835;42.930;25.178;2023-01-28T13:05:50;1.90;99.90
11559;DHT22;5835;42.930;25.178;2023-01-28T13:08:22;1.90;99.90
11559;DHT22;5835;42.930;25.178;2023-01-28T13:10:51;1.80;99.90
11559;DHT22;5835;42.930;25.178;2023-01-28T13:13:26;1.80;99.90
11559;DHT22;5835;42.930;25.178;2023-01-28T13:15:55;1.80;99.90
11559;DHT22;5835;42.930;25.178;2023-01-28T13:18:43;1.70;99.90
11559;DHT22;5835;42.930;25.178;2023-01-28T13:21:27;1.80;99.90
11559;DHT22;5835;42.930;25.178;2023-01-28T13:24:05;1.80;99.90
11559;DHT22;5835;42.930;25.178;2023-01-28T13:26:44;1.70;99.90
11559;DHT22;5835;42.930;25.178;2023-01-28T13:29:26;1.60;99.90
11559;DHT22;5835;42.930;25.178;2023-01-28T13:31:56;1.50;99.90
11559;DHT22;5835;42.930;25.178;2023-01-28T13:34:30;1.50;99.90
11559;DHT22;5835;42.930;25.178;2023-01-28T13:37:06;1.50;99.90
11559;DHT22;5835;42.930;25.178;2023-01-28T13:39:34;1.50;99.90
11559;DHT22;5835;42.930;25.178;2023-01-28T13:42:21;1.50;99.90
11559;DHT22;5835;42.930;25.178;2023-01-28T13:44:50;1.50;99.90
11559;DHT22;5835;42.930;25.178;2023-01-28T13:47:26;1.50;99.90
11559;DHT22;5835;42.930;25.178;2023-01-28T13:49:58;1.50;99.90
11559;DHT22;5835;42.930;25.178;2023-01-28T13:52:29;1.30;99.90
11559;DHT22;5835;42.930;25.178;2023-01-28T13:55:03;1.40;99.90
11559;DHT22;5835;42.930;25.178;2023-01-28T13:58:06;1.40;99.90
11559;DHT22;5835;42.930;25.178;2023-01-28T14:00:46;1.30;99.90
11559;DHT22;5835;42.930;25.178;2023-01-28T14:03:38;1.40;99.90
11559;DHT22;5835;42.930;25.178;2023-01-28T14:12:30;1.40;99.90
11559;DHT22;5835;42.930;25.178;2023-01-28T14:18:23;1.50;99.90
11559;DHT22;5835;42.930;25.178;2023-01-28T14:20:53;1.50;99.90
11559;DHT22;5835;42.930;25.178;2023-01-28T14:23:22;1.30;99.90
11559;DHT22;5835;42.930;25.178;2023-01-28T14:26:12;1.30;99.90
11559;DHT22;5835;42.930;25.178;2023-01-28T14:28:47;1.20;99.90
11559;DHT22;5835;42.930;25.178;2023-01-28T14:31:24;1.20;99.90
11559;DHT22;5835;42.930;25.178;2023-01-28T14:33:54;1.20;99.90
11559;DHT22;5835;42.930;25.178;2023-01-28T14:36:24;1.20;99.90
11559;DHT22;5835;42.930;25.178;2023-01-28T14:38:55;1.20;99.90
11559;DHT22;5835;42.930;25.178;2023-01-28T14:41:25;1.20;99.90
11559;DHT22;5835;42.930;25.178;2023-01-28T14:43:54;1.20;99.90
11559;DHT22;5835;42.930;25.178;2023-01-28T14:46:29;1.10;99.90
11559;DHT22;5835;42.930;25.178;2023-01-28T14:49:16;1.10;99.90
11559;DHT22;5835;42.930;25.178;2023-01-28T14:51:59;1.10;99.90
11559;DHT22;5835;42.930;25.178;2023-01-28T14:54:42;1.10;99.90
11559;DHT22;5835;42.930;25.178;2023-01-28T14:57:33;1.00;99.90
11559;DHT22;5835;42.930;25.178;2023-01-28T15:00:16;1.20;99.90
11559;DHT22;5835;42.930;25.178;2023-01-28T15:02:44;1.20;99.90
11559;DHT22;5835;42.930;25.178;2023-01-28T15:05:17;1.10;99.90
11559;DHT22;5835;42.930;25.178;2023-01-28T15:07:46;1.20;99.90
11559;DHT22;5835;42.930;25.178;2023-01-28T15:10:17;1.20;99.90
11559;DHT22;5835;42.930;25.178;2023-01-28T15:12:49;1.20;99.90
11559;DHT22;5835;42.930;25.178;2023-01-28T15:15:24;1.20;99.90
11559;DHT22;5835;42.930;25.178;2023-01-28T15:17:55;1.30;99.90
11559;DHT22;5835;42.930;25.178;2023-01-28T15:20:26;1.30;99.90
11559;DHT22;5835;42.930;25.178;2023-01-28T15:22:54;1.10;99.90
11559;DHT22;5835;42.930;25.178;2023-01-28T15:25:23;1.20;99.90
11559;DHT22;5835;42.930;25.178;2023-01-28T15:27:54;1.10;99.90
11559;DHT22;5835;42.930;25.178;2023-01-28T15:30:26;1.10;99.90
11559;DHT22;5835;42.930;25.178;2023-01-28T15:33:00;1.00;99.90
11559;DHT22;5835;42.930;25.178;2023-01-28T15:35:29;1.00;99.90
11559;DHT22;5835;42.930;25.178;2023-01-28T15:37:58;1.10;99.90
11559;DHT22;5835;42.930;25.178;2023-01-28T15:40:29;0.90;99.90
11559;DHT22;5835;42.930;25.178;2023-01-28T15:42:57;0.90;99.90
11559;DHT22;5835;42.930;25.178;2023-01-28T15:45:27;1.00;99.90
11559;DHT22;5835;42.930;25.178;2023-01-28T15:48:03;0.80;99.90
11559;DHT22;5835;42.930;25.178;2023-01-28T15:50:35;0.90;99.90
11559;DHT22;5835;42.930;25.178;2023-01-28T15:53:07;0.80;99.90
11559;DHT22;5835;42.930;25.178;2023-01-28T15:55:38;0.80;99.90
11559;DHT22;5835;42.930;25.178;2023-01-28T15:58:19;0.80;99.90
11559;DHT22;5835;42.930;25.178;2023-01-28T16:00:47;0.70;99.90
11559;DHT22;5835;42.930;25.178;2023-01-28T16:03:20;0.70;99.90
11559;DHT22;5835;42.930;25.178;2023-01-28T16:05:57;0.80;99.90
11559;DHT22;5835;42.930;25.178;2023-01-28T16:08:31;0.70;99.90
11559;DHT22;5835;42.930;25.178;2023-01-28T16:11:00;0.60;99.90
11559;DHT22;5835;42.930;25.178;2023-01-28T16:13:31;0.70;99.90
11559;DHT22;5835;42.930;25.178;2023-01-28T16:16:01;0.70;99.90
11559;DHT22;5835;42.930;25.178;2023-01-28T16:18:38;0.70;99.90
11559;DHT22;5835;42.930;25.178;2023-01-28T16:21:09;0.70;99.90
11559;DHT22;5835;42.930;25.178;2023-01-28T16:23:38;0.60;99.90
11559;DHT22;5835;42.930;25.178;2023-01-28T16:26:19;0.60;99.90